Time;durP1;ratioP1;P1;durP2;ratioP2;P2;SDS_P1;SDS_P2;PMS_P1;PMS_P2;Temp;Humidity;BMP_temperature;BMP_pressure;BME280_temperature;BME280_humidity;BME280_pressure;Samples;Min_cycle;Max_cycle;Signal;HPM_P1;HPM_P2
2022/02/23 00:00:08;;;;;;;34.53;3.63;;;7.80;99.90;;;;;;5072505;28;20205;-69
2022/02/23 00:02:34;;;;;;;31.45;3.60;;;7.80;99.90;;;;;;5092050;28;20196;-69
2022/02/23 00:05:00;;;;;;;25.33;3.70;;;7.80;99.90;;;;;;5090252;28;20182;-71
2022/02/23 00:07:26;;;;;;;37.63;4.10;;;7.80;99.90;;;;;;5106712;27;20181;-70
2022/02/23 00:09:54;;;;;;;27.83;4.07;;;7.80;99.90;;;;;;5073440;28;20201;-69
2022/02/23 00:12:20;;;;;;;25.52;3.67;;;7.80;99.90;;;;;;5097527;28;20638;-71
2022/02/23 00:14:45;;;;;;;19.02;2.85;;;7.80;99.90;;;;;;5094068;28;20239;-70
2022/02/23 00:17:11;;;;;;;29.95;3.42;;;7.70;99.90;;;;;;5097259;28;20748;-71
2022/02/23 00:19:37;;;;;;;24.08;3.72;;;7.70;99.90;;;;;;5083764;28;20218;-70
2022/02/23 00:22:03;;;;;;;33.08;3.90;;;7.70;99.90;;;;;;5102635;28;20178;-71
2022/02/23 00:24:28;;;;;;;28.20;4.50;;;7.70;99.90;;;;;;5094206;28;20188;-70
2022/02/23 00:26:54;;;;;;;24.10;3.63;;;7.70;99.90;;;;;;5101103;28;20181;-70
2022/02/23 00:29:20;;;;;;;31.95;3.72;;;7.70;99.90;;;;;;5088081;28;20508;-72
2022/02/23 00:31:46;;;;;;;22.98;2.97;;;7.70;99.90;;;;;;5100726;28;20192;-68
2022/02/23 00:34:11;;;;;;;28.23;4.05;;;7.70;99.90;;;;;;5099633;28;20592;-69
2022/02/23 00:36:37;;;;;;;28.20;3.80;;;7.70;99.90;;;;;;5088647;28;21013;-69
2022/02/23 00:39:03;;;;;;;24.10;3.55;;;7.70;99.90;;;;;;5098404;28;20209;-69
2022/02/23 00:41:29;;;;;;;23.02;3.60;;;7.70;99.90;;;;;;5097312;28;20185;-69
2022/02/23 00:43:54;;;;;;;27.02;3.75;;;7.70;99.90;;;;;;5105121;28;20661;-71
2022/02/23 00:46:20;;;;;;;23.92;3.58;;;7.60;99.90;;;;;;5096416;28;20218;-70
2022/02/23 00:48:46;;;;;;;21.50;3.40;;;7.60;99.90;;;;;;5090303;28;20646;-73
2022/02/23 00:51:12;;;;;;;32.28;3.97;;;7.60;99.90;;;;;;5089401;28;20714;-70
2022/02/23 00:53:37;;;;;;;21.90;3.38;;;7.60;99.90;;;;;;5091950;28;20178;-71
2022/02/23 00:56:03;;;;;;;33.35;3.97;;;7.60;99.90;;;;;;5089662;28;20186;-71
2022/02/23 00:58:29;;;;;;;29.83;3.83;;;7.60;99.90;;;;;;5091457;28;20214;-70
2022/02/23 01:00:54;;;;;;;26.85;3.92;;;7.60;99.90;;;;;;5088128;28;20613;-73
2022/02/23 01:03:20;;;;;;;20.40;3.58;;;7.60;99.90;;;;;;5072973;28;20256;-69
2022/02/23 01:05:46;;;;;;;31.52;3.65;;;7.60;99.90;;;;;;5088956;28;20190;-70
2022/02/23 01:08:11;;;;;;;29.73;3.45;;;7.60;99.90;;;;;;5091551;28;20193;-72
2022/02/23 01:10:37;;;;;;;37.70;3.83;;;7.50;99.90;;;;;;5086751;28;20182;-71
2022/02/23 01:13:03;;;;;;;27.23;4.38;;;7.60;99.90;;;;;;5076055;28;20184;-71
2022/02/23 01:15:30;;;;;;;19.98;3.50;;;7.50;99.90;;;;;;5091721;28;20227;-70
2022/02/23 01:17:56;;;;;;;25.88;3.83;;;7.50;99.90;;;;;;5090509;28;20205;-69
2022/02/23 01:20:22;;;;;;;27.92;4.30;;;7.50;99.90;;;;;;5070055;28;20190;-68
2022/02/23 01:22:48;;;;;;;20.25;3.20;;;7.50;99.90;;;;;;5090125;28;20257;-68
2022/02/23 01:25:13;;;;;;;24.17;3.40;;;7.50;99.90;;;;;;5091767;28;20533;-69
2022/02/23 01:27:39;;;;;;;26.05;3.35;;;7.50;99.90;;;;;;5095323;28;20181;-71
2022/02/23 01:30:06;;;;;;;25.23;3.97;;;7.50;99.90;;;;;;5097884;28;20240;-70
2022/02/23 01:32:31;;;;;;;22.13;3.50;;;7.50;99.90;;;;;;5097370;28;20186;-71
2022/02/23 01:34:57;;;;;;;27.30;3.45;;;7.50;99.90;;;;;;5091435;28;20768;-70
2022/02/23 01:37:23;;;;;;;26.67;3.28;;;7.50;99.90;;;;;;5092066;28;20233;-71
2022/02/23 01:39:49;;;;;;;26.30;3.47;;;7.50;99.90;;;;;;5072009;28;20216;-71
2022/02/23 01:42:16;;;;;;;27.95;3.72;;;7.50;99.90;;;;;;5087070;28;20194;-71
2022/02/23 01:44:41;;;;;;;30.25;3.88;;;7.50;99.90;;;;;;5089996;28;20192;-72
2022/02/23 01:47:07;;;;;;;24.67;3.75;;;7.50;99.90;;;;;;5071908;28;20976;-72
2022/02/23 01:49:33;;;;;;;27.52;3.58;;;7.50;99.90;;;;;;5087330;28;20219;-73
2022/02/23 01:51:59;;;;;;;25.23;3.20;;;7.50;99.90;;;;;;5088155;28;20186;-71
2022/02/23 01:54:24;;;;;;;27.50;3.80;;;7.40;99.90;;;;;;5072613;28;20205;-71
2022/02/23 01:56:50;;;;;;;28.02;3.50;;;7.40;99.90;;;;;;5096716;28;20652;-71
2022/02/23 01:59:17;;;;;;;22.65;3.38;;;7.50;99.90;;;;;;5100676;28;20209;-70
2022/02/23 02:01:43;;;;;;;36.42;3.28;;;7.40;99.90;;;;;;5096948;28;20193;-70
2022/02/23 02:04:08;;;;;;;22.85;2.97;;;7.40;99.90;;;;;;5098738;28;20203;-70
2022/02/23 02:06:34;;;;;;;21.08;3.20;;;7.40;99.90;;;;;;5099365;28;20219;-71
2022/02/23 02:09:00;;;;;;;19.20;3.17;;;7.40;99.90;;;;;;5105559;28;20184;-70
2022/02/23 02:11:26;;;;;;;26.45;3.30;;;7.40;99.90;;;;;;5088391;28;20217;-70
2022/02/23 02:13:52;;;;;;;21.63;2.92;;;7.40;99.90;;;;;;5097852;28;20642;-70
2022/02/23 02:16:18;;;;;;;22.13;3.25;;;7.40;99.90;;;;;;5083005;28;20223;-71
2022/02/23 02:18:44;;;;;;;22.13;3.13;;;7.40;99.90;;;;;;5077834;28;20247;-69
2022/02/23 02:21:09;;;;;;;22.83;3.33;;;7.40;99.90;;;;;;5095544;28;20185;-69
2022/02/23 02:23:35;;;;;;;21.08;3.63;;;7.40;99.90;;;;;;5077141;28;20183;-69
2022/02/23 02:26:01;;;;;;;19.52;3.28;;;7.40;99.90;;;;;;5095974;28;20219;-71
2022/02/23 02:28:26;;;;;;;28.73;4.18;;;7.40;99.90;;;;;;5096202;28;20208;-70
2022/02/23 02:30:52;;;;;;;21.33;3.17;;;7.40;99.90;;;;;;5096094;28;20176;-70
2022/02/23 02:33:18;;;;;;;23.02;3.45;;;7.40;99.90;;;;;;5100989;28;20639;-69
2022/02/23 02:35:43;;;;;;;31.88;3.60;;;7.40;99.90;;;;;;5073191;28;20217;-70
2022/02/23 02:38:09;;;;;;;28.00;3.45;;;7.40;99.90;;;;;;5086263;28;20217;-69
2022/02/23 02:40:35;;;;;;;35.13;3.45;;;7.40;99.90;;;;;;5069540;28;20182;-69
2022/02/23 02:43:07;;;;;;;20.02;3.50;;;7.40;99.90;;;;;;5088971;28;20257;-70
2022/02/23 02:45:32;;;;;;;23.33;3.40;;;7.40;99.90;;;;;;5086824;28;20294;-68
2022/02/23 02:47:59;;;;;;;20.83;3.03;;;7.40;99.90;;;;;;5086664;28;20721;-69
2022/02/23 02:50:25;;;;;;;30.73;3.95;;;7.30;99.90;;;;;;5070511;28;20213;-71
2022/02/23 02:52:50;;;;;;;18.55;3.28;;;7.30;99.90;;;;;;5089279;28;20198;-71
2022/02/23 02:55:16;;;;;;;27.05;3.63;;;7.30;99.90;;;;;;5087054;28;20212;-71
2022/02/23 02:57:41;;;;;;;31.50;3.83;;;7.30;99.90;;;;;;5086493;28;20641;-70
2022/02/23 03:00:10;;;;;;;27.45;3.63;;;7.30;99.90;;;;;;5088065;28;20182;-69
2022/02/23 03:02:36;;;;;;;23.95;3.58;;;7.30;99.90;;;;;;5087437;28;20182;-68
2022/02/23 03:05:02;;;;;;;30.63;3.65;;;7.30;99.90;;;;;;5088454;28;20339;-70
2022/02/23 03:07:27;;;;;;;29.52;3.42;;;7.30;99.90;;;;;;5087623;28;20273;-69
2022/02/23 03:09:53;;;;;;;31.30;3.00;;;7.30;99.90;;;;;;5070967;28;20306;-69
2022/02/23 03:12:19;;;;;;;26.17;3.40;;;7.30;99.90;;;;;;5087181;28;20185;-69
2022/02/23 03:14:46;;;;;;;24.77;3.45;;;7.30;99.90;;;;;;5089560;28;20673;-71
2022/02/23 03:17:11;;;;;;;32.75;4.32;;;7.30;99.90;;;;;;5070810;28;20642;-71
2022/02/23 03:19:37;;;;;;;23.10;3.10;;;7.30;99.90;;;;;;5089236;28;20210;-69
2022/02/23 03:22:03;;;;;;;26.05;3.60;;;7.30;99.90;;;;;;5083752;28;20197;-69
2022/02/23 03:24:29;;;;;;;25.58;3.85;;;7.30;99.90;;;;;;5083666;28;20200;-68
2022/02/23 03:26:55;;;;;;;19.08;3.38;;;7.30;99.90;;;;;;5086414;28;20266;-69
2022/02/23 03:29:20;;;;;;;30.10;3.60;;;7.30;99.90;;;;;;5093950;28;20196;-70
2022/02/23 03:31:46;;;;;;;18.45;3.20;;;7.30;99.90;;;;;;5090539;28;20192;-70
2022/02/23 03:34:12;;;;;;;27.42;3.60;;;7.20;99.90;;;;;;5092146;28;20614;-69
2022/02/23 03:36:37;;;;;;;22.10;2.95;;;7.20;99.90;;;;;;5086065;28;20233;-69
2022/02/23 03:39:05;;;;;;;27.33;3.70;;;7.20;99.90;;;;;;5088817;28;20202;-70
2022/02/23 03:41:30;;;;;;;27.63;3.90;;;7.20;99.90;;;;;;5067670;28;20190;-68
2022/02/23 03:43:56;;;;;;;24.13;3.47;;;7.20;99.90;;;;;;5089104;28;20182;-69
2022/02/23 03:46:22;;;;;;;27.50;3.53;;;7.20;99.90;;;;;;5087362;28;20178;-70
2022/02/23 03:48:48;;;;;;;25.48;3.95;;;7.20;99.90;;;;;;5086921;28;20185;-69
2022/02/23 03:51:13;;;;;;;28.20;3.58;;;7.20;99.90;;;;;;5087605;28;20219;-69
2022/02/23 03:53:39;;;;;;;20.92;3.40;;;7.20;99.90;;;;;;5097439;28;20198;-71
2022/02/23 03:56:38;;;;;;;21.90;3.42;;;7.20;99.90;;;;;;5086581;28;20178;-70
2022/02/23 03:58:53;;;;;;;24.23;3.72;;;7.20;99.90;;;;;;5098876;28;20570;-69
2022/02/23 04:01:22;;;;;;;29.58;3.78;;;7.20;99.90;;;;;;5094633;28;20178;-71
2022/02/23 04:03:47;;;;;;;36.10;4.32;;;7.20;99.90;;;;;;5091694;28;20186;-71
2022/02/23 04:06:13;;;;;;;25.70;3.25;;;7.20;99.90;;;;;;5090430;28;20206;-71
2022/02/23 04:08:39;;;;;;;48.85;4.10;;;7.20;99.90;;;;;;5092835;28;20182;-72
2022/02/23 04:11:04;;;;;;;23.50;3.60;;;7.10;99.90;;;;;;5085456;28;20182;-69
2022/02/23 04:13:30;;;;;;;26.85;3.55;;;7.20;99.90;;;;;;5101764;28;20256;-72
2022/02/23 04:15:56;;;;;;;35.38;3.55;;;7.10;99.90;;;;;;5105418;28;20603;-73
2022/02/23 04:18:21;;;;;;;34.53;3.85;;;7.10;99.90;;;;;;5085393;28;23141;-73
2022/02/23 04:20:47;;;;;;;23.42;3.75;;;7.10;99.90;;;;;;5093920;28;20177;-72
2022/02/23 04:23:12;;;;;;;27.92;3.67;;;7.10;99.90;;;;;;5101824;28;20232;-71
2022/02/23 04:25:38;;;;;;;30.77;3.47;;;7.10;99.90;;;;;;5100349;28;20654;-70
2022/02/23 04:28:04;;;;;;;29.33;3.95;;;7.10;99.90;;;;;;5097930;28;20264;-70
2022/02/23 04:30:29;;;;;;;26.85;3.80;;;7.10;99.90;;;;;;5104033;28;20186;-71
2022/02/23 04:32:55;;;;;;;21.20;3.47;;;7.10;99.90;;;;;;5098824;28;20189;-70
2022/02/23 04:35:21;;;;;;;27.58;3.55;;;7.10;99.90;;;;;;5075468;28;20888;-70
2022/02/23 04:37:46;;;;;;;29.45;3.80;;;7.10;99.90;;;;;;5094964;28;20222;-70
2022/02/23 04:40:12;;;;;;;32.85;3.33;;;7.10;99.90;;;;;;5097764;28;20190;-70
2022/02/23 04:42:38;;;;;;;34.75;3.67;;;7.10;99.90;;;;;;5087526;28;20202;-69
2022/02/23 04:45:04;;;;;;;23.48;3.97;;;7.10;99.90;;;;;;5090731;28;20247;-70
2022/02/23 04:47:30;;;;;;;28.75;3.90;;;7.00;99.90;;;;;;5089323;28;20186;-69
2022/02/23 04:49:56;;;;;;;31.17;4.03;;;7.00;99.90;;;;;;5091898;28;20186;-69
2022/02/23 04:52:24;;;;;;;28.83;4.13;;;7.00;99.90;;;;;;5089449;28;20217;-72
2022/02/23 04:54:51;;;;;;;29.27;3.72;;;7.00;99.90;;;;;;5091383;28;20219;-69
2022/02/23 04:57:16;;;;;;;28.13;4.20;;;7.00;99.90;;;;;;5072691;28;20235;-71
2022/02/23 04:59:42;;;;;;;31.17;4.18;;;7.00;99.90;;;;;;5073386;28;20210;-70
2022/02/23 05:02:09;;;;;;;36.38;3.65;;;7.00;99.90;;;;;;5089742;28;20182;-69
2022/02/23 05:04:35;;;;;;;38.08;4.32;;;7.00;99.90;;;;;;5073429;28;20239;-72
2022/02/23 05:07:00;;;;;;;36.42;4.35;;;7.00;99.90;;;;;;5096866;28;20734;-70
2022/02/23 05:09:26;;;;;;;25.85;3.55;;;7.00;99.90;;;;;;5105830;28;20184;-70
2022/02/23 05:11:52;;;;;;;33.10;4.35;;;7.00;99.90;;;;;;5093620;28;20562;-71
2022/02/23 05:14:18;;;;;;;23.50;4.00;;;7.00;99.90;;;;;;5086468;28;20249;-70
2022/02/23 05:16:44;;;;;;;26.35;3.58;;;6.90;99.90;;;;;;5091018;28;20182;-70
2022/02/23 05:19:09;;;;;;;34.90;3.97;;;7.00;99.90;;;;;;5091251;28;20224;-69
2022/02/23 05:21:35;;;;;;;43.83;4.63;;;7.00;99.90;;;;;;5089068;28;20212;-69
2022/02/23 05:24:01;;;;;;;32.92;3.60;;;7.00;99.90;;;;;;5090591;28;20190;-70
2022/02/23 05:26:26;;;;;;;25.98;3.55;;;7.00;99.90;;;;;;5088664;28;20653;-69
2022/02/23 05:28:52;;;;;;;30.77;3.95;;;7.00;99.90;;;;;;5089658;28;20316;-72
2022/02/23 05:31:17;;;;;;;39.47;4.07;;;7.00;99.90;;;;;;5092126;28;20682;-73
2022/02/23 05:33:43;;;;;;;32.30;4.10;;;7.00;99.90;;;;;;5099354;28;20645;-69
2022/02/23 05:36:09;;;;;;;35.47;4.00;;;7.00;99.90;;;;;;5071858;28;20197;-69
2022/02/23 05:38:34;;;;;;;30.95;3.75;;;7.00;99.90;;;;;;5095465;28;20229;-69
2022/02/23 05:41:03;;;;;;;32.92;3.78;;;6.90;99.90;;;;;;5086676;28;20190;-70
2022/02/23 05:43:28;;;;;;;33.67;3.85;;;6.90;99.90;;;;;;5086690;28;20190;-70
2022/02/23 05:45:54;;;;;;;28.50;4.40;;;6.90;99.90;;;;;;5069163;28;20174;-69
2022/02/23 05:48:20;;;;;;;33.05;4.45;;;6.90;99.90;;;;;;5088279;28;20194;-70
2022/02/23 05:50:46;;;;;;;27.60;3.55;;;6.90;99.90;;;;;;5089650;28;20182;-70
2022/02/23 05:53:12;;;;;;;31.02;3.35;;;6.90;99.90;;;;;;5089845;28;20576;-69
2022/02/23 05:55:38;;;;;;;31.08;4.13;;;6.90;99.90;;;;;;5082405;28;20194;-71
2022/02/23 05:58:03;;;;;;;28.73;3.75;;;7.00;99.90;;;;;;5080906;28;20190;-70
2022/02/23 06:00:29;;;;;;;34.53;3.60;;;6.90;99.90;;;;;;5081225;28;20541;-70
2022/02/23 06:02:55;;;;;;;31.85;3.92;;;6.90;99.90;;;;;;5088141;28;20178;-70
2022/02/23 06:05:20;;;;;;;34.65;4.18;;;6.90;99.90;;;;;;5090114;28;20906;-69
2022/02/23 06:07:46;;;;;;;18.90;4.00;;;6.90;99.90;;;;;;5089527;28;20618;-71
2022/02/23 06:10:11;;;;;;;28.77;3.80;;;6.90;99.90;;;;;;5085803;28;20188;-69
2022/02/23 06:12:37;;;;;;;28.48;3.95;;;6.90;99.90;;;;;;5072421;28;20213;-70
2022/02/23 06:15:03;;;;;;;32.95;4.20;;;6.90;99.90;;;;;;5094784;28;20208;-70
2022/02/23 06:17:28;;;;;;;42.88;4.82;;;6.90;99.90;;;;;;5093696;28;20190;-70
2022/02/23 06:19:54;;;;;;;38.47;4.70;;;6.90;99.90;;;;;;5088156;28;20701;-69
2022/02/23 06:22:20;;;;;;;29.95;3.65;;;6.90;99.90;;;;;;5085825;28;20602;-70
2022/02/23 06:24:45;;;;;;;26.13;3.83;;;6.90;99.90;;;;;;5069148;28;20186;-70
2022/02/23 06:27:13;;;;;;;28.08;3.50;;;6.90;99.90;;;;;;5085717;28;20194;-68
2022/02/23 06:29:39;;;;;;;27.63;3.70;;;6.90;99.90;;;;;;5089509;28;20196;-69
2022/02/23 06:32:06;;;;;;;25.88;4.07;;;6.90;99.90;;;;;;5085607;28;20192;-72
2022/02/23 06:34:33;;;;;;;28.02;3.78;;;6.90;99.90;;;;;;5097342;28;20728;-69
2022/02/23 06:37:02;;;;;;;26.92;3.97;;;6.90;99.90;;;;;;5083991;28;20298;-70
2022/02/23 06:39:33;;;;;;;30.77;3.05;;;6.90;99.90;;;;;;5088975;28;20209;-70
2022/02/23 06:42:01;;;;;;;29.67;3.90;;;6.90;99.90;;;;;;5086260;28;22555;-70
2022/02/23 06:44:28;;;;;;;32.92;3.92;;;6.90;99.90;;;;;;5088700;28;20181;-68
2022/02/23 06:46:54;;;;;;;34.70;3.63;;;6.90;99.90;;;;;;5078276;28;20207;-70
2022/02/23 06:49:19;;;;;;;37.50;3.90;;;6.90;99.90;;;;;;5091003;28;20194;-69
2022/02/23 06:51:47;;;;;;;30.52;3.92;;;6.90;99.90;;;;;;5087419;28;20273;-69
2022/02/23 06:54:13;;;;;;;35.40;4.07;;;6.90;99.90;;;;;;5087673;28;20204;-69
2022/02/23 06:56:39;;;;;;;29.15;4.53;;;6.90;99.90;;;;;;5088768;28;20189;-68
2022/02/23 06:59:05;;;;;;;26.20;3.63;;;6.90;99.90;;;;;;5085684;28;20213;-70
2022/02/23 07:01:30;;;;;;;37.25;4.35;;;6.90;99.90;;;;;;5059476;28;20614;-69
2022/02/23 07:03:56;;;;;;;29.13;4.07;;;6.90;99.90;;;;;;5089377;28;20186;-71
2022/02/23 07:06:22;;;;;;;37.22;4.43;;;6.90;99.90;;;;;;5076983;28;20182;-69
2022/02/23 07:08:49;;;;;;;30.15;3.85;;;6.90;99.90;;;;;;5087612;28;20514;-70
2022/02/23 07:11:16;;;;;;;33.75;3.83;;;6.90;99.90;;;;;;5088098;28;20672;-69
2022/02/23 07:13:43;;;;;;;35.75;4.25;;;6.90;99.90;;;;;;5100195;28;20181;-71
2022/02/23 07:16:12;;;;;;;45.03;4.40;;;6.90;99.90;;;;;;5088700;28;20185;-69
2022/02/23 07:18:38;;;;;;;49.20;5.18;;;6.90;99.90;;;;;;5088052;28;20657;-70
2022/02/23 07:21:04;;;;;;;39.20;4.95;;;7.00;99.90;;;;;;5069955;28;20277;-69
2022/02/23 07:23:30;;;;;;;37.25;4.32;;;6.90;99.90;;;;;;5087466;28;20265;-69
2022/02/23 07:25:55;;;;;;;39.25;4.63;;;7.00;99.90;;;;;;5087925;28;20269;-68
2022/02/23 07:28:21;;;;;;;35.47;3.70;;;7.00;99.90;;;;;;5099463;28;20217;-69
2022/02/23 07:30:48;;;;;;;35.03;4.28;;;7.00;99.90;;;;;;5087659;28;20193;-70
2022/02/23 07:33:15;;;;;;;30.88;4.00;;;7.00;99.90;;;;;;5092353;28;20243;-69
2022/02/23 07:35:41;;;;;;;35.17;4.03;;;7.00;99.90;;;;;;5072920;28;20192;-68
2022/02/23 07:38:08;;;;;;;30.40;3.97;;;7.00;99.90;;;;;;5093241;28;20217;-70
2022/02/23 07:40:34;;;;;;;34.35;4.03;;;7.00;99.90;;;;;;5077047;28;20197;-69
2022/02/23 07:43:00;;;;;;;25.70;3.78;;;7.10;99.90;;;;;;5091353;28;20182;-70
2022/02/23 07:45:26;;;;;;;33.42;4.13;;;7.10;99.90;;;;;;5091520;28;20666;-70
2022/02/23 07:47:52;;;;;;;34.65;4.25;;;7.10;99.90;;;;;;5073154;28;20719;-71
2022/02/23 07:50:19;;;;;;;27.23;3.30;;;7.20;99.90;;;;;;5072452;28;20269;-68
2022/02/23 07:52:49;;;;;;;33.67;4.00;;;7.20;99.90;;;;;;5090027;28;20225;-69
2022/02/23 07:55:15;;;;;;;29.48;3.80;;;7.20;99.90;;;;;;5090321;28;20650;-70
2022/02/23 07:57:41;;;;;;;32.05;3.38;;;7.30;99.90;;;;;;5089206;28;20561;-70
2022/02/23 08:00:09;;;;;;;23.48;3.67;;;7.30;99.90;;;;;;5093609;28;20221;-70
2022/02/23 08:02:38;;;;;;;25.27;3.33;;;7.40;99.90;;;;;;5091558;28;20182;-71
2022/02/23 08:05:05;;;;;;;23.20;3.50;;;7.40;99.90;;;;;;5090871;28;20205;-70
2022/02/23 08:07:31;;;;;;;26.02;3.60;;;7.50;99.90;;;;;;5073070;28;20258;-70
2022/02/23 08:09:56;;;;;;;27.20;3.85;;;7.50;99.90;;;;;;5072750;28;20986;-69
2022/02/23 08:12:23;;;;;;;21.75;3.80;;;7.60;99.90;;;;;;5099359;28;20197;-71
2022/02/23 08:14:48;;;;;;;35.47;3.97;;;7.60;99.90;;;;;;5091538;28;20250;-72
2022/02/23 08:19:59;;;;;;;22.65;3.42;;;7.70;99.90;;;;;;5094110;28;20730;-65
2022/02/23 08:22:29;;;;;;;20.80;3.47;;;7.80;99.90;;;;;;5091289;28;20268;-67
2022/02/23 08:24:55;;;;;;;;;;;8.00;99.90;;;;;;5091557;28;20028;-66
2022/02/23 08:27:21;;;;;;;;;;;8.50;99.90;;;;;;5089662;28;19912;-68
2022/02/23 08:29:47;;;;;;;;;;;9.20;99.90;;;;;;5091341;28;20013;-69
2022/02/23 08:32:14;;;;;;;;;;;10.00;99.90;;;;;;5089859;28;19915;-70
2022/02/23 08:34:45;;;;;;;;;;;10.80;99.90;;;;;;5087915;28;19908;-68
2022/02/23 08:37:11;;;;;;;;;;;11.70;99.90;;;;;;5089116;28;19919;-67
2022/02/23 08:39:37;;;;;;;;;;;12.30;99.90;;;;;;5090124;28;20368;-67
2022/02/23 08:42:03;;;;;;;;;;;13.10;99.90;;;;;;5070979;28;19912;-66
2022/02/23 08:44:28;;;;;;;;;;;13.80;99.90;;;;;;5072832;28;19912;-67
2022/02/23 08:46:55;;;;;;;;;;;14.70;99.90;;;;;;5088507;28;19977;-68
2022/02/23 08:49:21;;;;;;;;;;;15.60;99.90;;;;;;5092124;28;19908;-68
2022/02/23 08:51:46;;;;;;;;;;;16.50;99.90;;;;;;5086352;28;19916;-68
2022/02/23 08:54:13;;;;;;;;;;;17.20;99.90;;;;;;5092043;28;20003;-71
2022/02/23 08:56:39;;;;;;;;;;;17.70;99.90;;;;;;5073245;28;19908;-67
2022/02/23 08:59:05;;;;;;;;;;;18.00;99.90;;;;;;5092423;28;19926;-68
2022/02/23 09:01:30;;;;;;;;;;;18.30;99.90;;;;;;5076362;28;19915;-69
2022/02/23 09:03:56;;;;;;;;;;;18.60;99.90;;;;;;5072679;28;19999;-68
2022/02/23 09:06:23;;;;;;;;;;;18.70;99.90;;;;;;5090115;28;19998;-69
2022/02/23 09:08:48;;;;;;;;;;;18.80;99.90;;;;;;5090271;28;19951;-68
2022/02/23 09:11:14;;;;;;;;;;;18.80;99.70;;;;;;5090709;28;20421;-69
2022/02/23 09:13:40;;;;;;;;;;;18.80;99.90;;;;;;5090073;28;19908;-69
2022/02/23 09:16:06;;;;;;;;;;;19.70;84.40;;;;;;5088116;28;19916;-67
2022/02/23 09:18:32;;;;;;;;;;;20.00;69.40;;;;;;5091625;28;19919;-68
2022/02/23 09:20:57;;;;;;;;;;;20.00;63.40;;;;;;5088043;28;19908;-69
2022/02/23 09:23:23;;;;;;;;;;;19.90;62.00;;;;;;5090064;28;19934;-69
2022/02/23 09:25:49;;;;;;;;;;;19.70;61.00;;;;;;5089330;28;19991;-68
2022/02/23 09:28:14;;;;;;;;;;;19.50;62.30;;;;;;5090900;28;20021;-69
2022/02/23 09:30:40;;;;;;;;;;;19.60;62.80;;;;;;5071706;28;19920;-68
2022/02/23 09:33:05;;;;;;;;;;;19.60;61.20;;;;;;5091628;28;20011;-70
2022/02/23 09:35:31;;;;;;;;;;;19.60;58.90;;;;;;5089386;28;20288;-68
2022/02/23 09:37:57;;;;;;;;;;;19.40;58.70;;;;;;5102860;28;19924;-67
2022/02/23 09:40:23;;;;;;;;;;;19.20;59.10;;;;;;5069471;28;19912;-69
2022/02/23 09:42:50;;;;;;;;;;;19.10;59.50;;;;;;5067752;28;19908;-69
2022/02/23 09:45:16;;;;;;;;;;;19.00;59.50;;;;;;5068909;28;19947;-69
2022/02/23 09:47:42;;;;;;;19.55;2.97;;;18.90;58.80;;;;;;5067132;28;20310;-70
2022/02/23 09:50:11;;;;;;;14.40;2.92;;;18.60;60.00;;;;;;5066841;28;20399;-68
2022/02/23 09:52:37;;;;;;;14.93;3.03;;;18.40;60.60;;;;;;5067989;28;20423;-69
2022/02/23 09:55:04;;;;;;;12.23;2.72;;;18.10;60.00;;;;;;5065715;28;20516;-69
2022/02/23 09:57:30;;;;;;;15.20;3.08;;;17.90;60.90;;;;;;5072706;28;20404;-69
2022/02/23 09:59:57;;;;;;;13.67;2.70;;;17.70;62.10;;;;;;5070461;28;20411;-70
2022/02/23 10:02:23;;;;;;;13.27;2.20;;;17.60;61.30;;;;;;5067018;28;20415;-68
2022/02/23 10:04:51;;;;;;;12.55;2.72;;;17.60;60.60;;;;;;5068718;28;20411;-69
2022/02/23 10:07:27;;;;;;;11.52;2.30;;;17.50;60.00;;;;;;5064592;28;20404;-70
2022/02/23 10:09:54;;;;;;;12.25;2.30;;;17.40;61.30;;;;;;5067009;28;20485;-69
2022/02/23 10:12:26;;;;;;;8.35;2.10;;;17.30;60.00;;;;;;5066246;28;20407;-69
2022/02/23 10:15:08;;;;;;;11.13;2.30;;;17.10;59.70;;;;;;5067770;28;20426;-70
2022/02/23 10:17:39;;;;;;;13.30;2.40;;;16.90;60.60;;;;;;5062976;28;21112;-70
2022/02/23 10:20:23;;;;;;;12.23;2.20;;;16.70;60.60;;;;;;5066525;28;20423;-69
2022/02/23 10:22:50;;;;;;;11.15;1.88;;;16.60;61.10;;;;;;5067130;28;20588;-71
2022/02/23 10:25:26;;;;;;;9.53;2.17;;;16.40;60.60;;;;;;5065485;28;20396;-69
2022/02/23 10:28:09;;;;;;;8.73;1.98;;;16.30;61.60;;;;;;5068449;28;20414;-69
2022/02/23 10:30:43;;;;;;;9.52;1.80;;;16.20;62.40;;;;;;5066519;28;20474;-69
2022/02/23 10:33:13;;;;;;;8.67;1.70;;;16.20;63.00;;;;;;5068259;28;20403;-69
2022/02/23 10:35:48;;;;;;;8.55;1.70;;;16.10;61.50;;;;;;5068791;28;20421;-70
2022/02/23 10:38:20;;;;;;;12.18;2.38;;;15.90;61.90;;;;;;5096735;28;20424;-70
2022/02/23 10:40:46;;;;;;;9.07;1.83;;;15.70;62.60;;;;;;5068815;28;20421;-70
2022/02/23 10:43:26;;;;;;;10.20;2.00;;;15.60;63.50;;;;;;5089765;28;20409;-71
2022/02/23 10:46:00;;;;;;;9.27;1.88;;;15.50;63.80;;;;;;5068825;28;20470;-69
2022/02/23 10:48:35;;;;;;;7.78;1.85;;;15.60;66.10;;;;;;5088816;28;20416;-69
2022/02/23 10:51:02;;;;;;;7.22;1.52;;;15.60;62.90;;;;;;5088573;28;20417;-70
2022/02/23 10:53:30;;;;;;;5.80;1.65;;;15.50;62.80;;;;;;5079656;28;21176;-68
2022/02/23 10:55:56;;;;;;;11.07;2.22;;;15.40;62.00;;;;;;5089505;28;20440;-68
2022/02/23 10:58:25;;;;;;;11.07;2.00;;;15.40;63.70;;;;;;5087758;28;20436;-68
2022/02/23 11:00:54;;;;;;;9.88;2.20;;;15.20;64.70;;;;;;5087408;28;20482;-68
2022/02/23 11:03:20;;;;;;;9.10;2.15;;;15.10;64.90;;;;;;5100098;28;20401;-69
2022/02/23 11:05:53;;;;;;;8.25;1.90;;;15.00;65.70;;;;;;5087050;28;20487;-69
2022/02/23 11:08:21;;;;;;;9.98;2.13;;;14.90;66.30;;;;;;5092382;28;20758;-67
2022/02/23 11:10:48;;;;;;;10.32;2.30;;;15.00;68.00;;;;;;5095879;28;20428;-68
2022/02/23 11:13:18;;;;;;;9.85;2.33;;;14.90;66.80;;;;;;5092662;28;20401;-68
2022/02/23 11:15:47;;;;;;;12.83;2.60;;;14.90;67.70;;;;;;5093096;28;20410;-69
2022/02/23 11:18:15;;;;;;;18.30;3.25;;;14.90;69.70;;;;;;5072186;28;20417;-68
2022/02/23 11:20:43;;;;;;;17.30;3.50;;;14.80;70.60;;;;;;5098813;28;20443;-69
2022/02/23 11:23:24;;;;;;;15.55;3.28;;;14.80;73.40;;;;;;5073320;28;20440;-68
2022/02/23 11:25:54;;;;;;;17.35;4.00;;;14.80;73.90;;;;;;5089397;28;20409;-68
2022/02/23 11:28:22;;;;;;;14.95;3.22;;;14.70;74.50;;;;;;5091746;28;20403;-68
2022/02/23 11:30:53;;;;;;;17.48;3.70;;;14.60;75.80;;;;;;5090143;28;20412;-69
2022/02/23 11:33:46;;;;;;;17.13;3.63;;;14.60;75.30;;;;;;5090104;28;20493;-68
2022/02/23 11:36:23;;;;;;;16.75;3.47;;;14.50;75.00;;;;;;5088081;28;20872;-68
2022/02/23 11:38:51;;;;;;;17.08;3.38;;;14.40;76.60;;;;;;5097106;28;20931;-69
2022/02/23 11:41:32;;;;;;;16.25;3.20;;;14.40;76.40;;;;;;5090383;28;20410;-69
2022/02/23 11:44:09;;;;;;;13.80;3.30;;;14.40;77.00;;;;;;5092142;28;20405;-69
2022/02/23 11:47:13;;;;;;;17.40;3.25;;;14.40;76.80;;;;;;5089683;28;20406;-69
2022/02/23 11:49:53;;;;;;;14.15;3.03;;;14.60;76.90;;;;;;5091745;28;20492;-72
2022/02/23 11:52:21;;;;;;;17.75;3.50;;;14.70;76.90;;;;;;5071389;28;20955;-70
2022/02/23 11:54:49;;;;;;;12.73;3.05;;;14.80;75.70;;;;;;5073871;28;20497;-71
2022/02/23 11:57:38;;;;;;;15.13;2.80;;;14.90;74.80;;;;;;5092468;28;20417;-70
2022/02/23 12:00:08;;;;;;;14.03;2.93;;;14.90;72.30;;;;;;5079561;28;20417;-69
2022/02/23 12:02:35;;;;;;;12.57;3.17;;;14.90;73.00;;;;;;5069448;28;20494;-72
2022/02/23 12:05:01;;;;;;;16.67;3.63;;;14.80;71.80;;;;;;5072042;28;20453;-69
2022/02/23 12:07:48;;;;;;;12.75;3.10;;;14.80;72.50;;;;;;5089599;28;20473;-70
2022/02/23 12:10:15;;;;;;;12.90;3.20;;;14.80;72.60;;;;;;5087833;28;20420;-70
2022/02/23 12:12:45;;;;;;;14.13;3.30;;;14.90;72.00;;;;;;5099359;28;20468;-70
2022/02/23 12:15:36;;;;;;;14.55;3.90;;;15.00;72.20;;;;;;5088794;28;20406;-71
2022/02/23 12:18:08;;;;;;;14.35;3.50;;;15.00;70.90;;;;;;5103440;28;20414;-71
2022/02/23 12:20:41;;;;;;;13.20;3.20;;;15.10;69.10;;;;;;5090349;28;20415;-70
2022/02/23 12:23:18;;;;;;;14.43;3.20;;;15.20;69.50;;;;;;5090855;28;20436;-70
2022/02/23 12:25:57;;;;;;;11.18;2.20;;;15.20;68.70;;;;;;5086819;28;20422;-70
2022/02/23 12:28:27;;;;;;;9.10;2.58;;;15.20;67.60;;;;;;5078956;28;20425;-68
2022/02/23 12:31:30;;;;;;;11.07;2.67;;;15.30;67.30;;;;;;5089703;28;20744;-68
2022/02/23 12:34:17;;;;;;;10.05;2.40;;;15.30;66.30;;;;;;5003183;28;20420;-67
2022/02/23 12:36:49;;;;;;;12.77;2.50;;;15.30;63.80;;;;;;5086290;28;20899;-68
2022/02/23 12:39:24;;;;;;;9.80;2.25;;;15.20;65.10;;;;;;5100188;28;20421;-68
2022/02/23 12:41:52;;;;;;;11.53;2.90;;;15.10;63.20;;;;;;5092623;28;20418;-68
2022/02/23 12:44:20;;;;;;;9.23;2.38;;;15.00;63.80;;;;;;5083930;28;20407;-68
2022/02/23 12:46:52;;;;;;;12.48;2.53;;;14.90;62.70;;;;;;5086886;28;20480;-68
2022/02/23 12:49:19;;;;;;;11.52;2.45;;;14.80;64.70;;;;;;5089177;28;20413;-69
2022/02/23 12:51:45;;;;;;;15.35;2.70;;;14.70;65.40;;;;;;5092711;28;20467;-68
2022/02/23 12:54:14;;;;;;;10.70;2.45;;;14.70;65.00;;;;;;5090555;28;20552;-68
2022/02/23 12:56:46;;;;;;;12.57;2.30;;;14.80;65.40;;;;;;5093284;28;20411;-68